Terminal Aerodrome Forecast
Issued by NWS

Home | Current Version | Previous Version | Text Only | Print | Product List | Glossary On
Versions: 1 2 3 4 5 6 7 8 9 10 11 12 13
000
FTUS42 TJSJ 301731
TAFNCM
TAF
TNCM 301731Z 3018/3118 13007KT P6SM VCSH FEW024
     FM302300 11008KT P6SM SCT025 BKN070
     FM311330 13010KT P6SM VCTS SCT018CB SCT035=

USA.gov is the U.S. government's official web portal to all federal, state and local government web resources and services.